sensor_id;sensor_type;location;lat;lon;timestamp;pressure;altitude;pressure_sealevel;temperature;humidity
69306;BME280;56427;51.580;4.656;2023-08-08T00:01:51;101501.00;;;14.32;100.00
69306;BME280;56427;51.580;4.656;2023-08-08T00:04:16;101494.16;;;14.41;100.00
69306;BME280;56427;51.580;4.656;2023-08-08T00:06:42;101506.38;;;14.41;100.00
69306;BME280;56427;51.580;4.656;2023-08-08T00:09:07;101501.59;;;14.46;100.00
69306;BME280;56427;51.580;4.656;2023-08-08T00:11:32;101506.69;;;14.47;100.00
69306;BME280;56427;51.580;4.656;2023-08-08T00:13:58;101498.72;;;14.39;100.00
69306;BME280;56427;51.580;4.656;2023-08-08T00:16:23;101492.78;;;14.37;100.00
69306;BME280;56427;51.580;4.656;2023-08-08T00:18:49;101491.97;;;14.36;100.00
69306;BME280;56427;51.580;4.656;2023-08-08T00:21:16;101493.03;;;14.34;100.00
69306;BME280;56427;51.580;4.656;2023-08-08T00:23:41;101488.13;;;14.31;100.00
69306;BME280;56427;51.580;4.656;2023-08-08T00:26:07;101492.38;;;14.32;100.00
69306;BME280;56427;51.580;4.656;2023-08-08T00:28:32;101492.22;;;14.33;100.00
69306;BME280;56427;51.580;4.656;2023-08-08T00:30:57;101481.66;;;14.25;100.00
69306;BME280;56427;51.580;4.656;2023-08-08T00:33:23;101486.06;;;14.34;100.00
69306;BME280;56427;51.580;4.656;2023-08-08T00:35:48;101496.34;;;14.26;100.00
69306;BME280;56427;51.580;4.656;2023-08-08T00:38:14;101494.81;;;14.24;100.00
69306;BME280;56427;51.580;4.656;2023-08-08T00:40:39;101496.78;;;14.31;100.00
69306;BME280;56427;51.580;4.656;2023-08-08T00:43:05;101479.16;;;14.24;100.00
69306;BME280;56427;51.580;4.656;2023-08-08T00:45:30;101493.19;;;14.32;100.00
69306;BME280;56427;51.580;4.656;2023-08-08T00:47:56;101487.16;;;14.32;100.00
69306;BME280;56427;51.580;4.656;2023-08-08T00:50:21;101489.50;;;14.35;100.00
69306;BME280;56427;51.580;4.656;2023-08-08T00:52:47;101494.03;;;14.33;100.00
69306;BME280;56427;51.580;4.656;2023-08-08T00:55:13;101489.75;;;14.32;100.00
69306;BME280;56427;51.580;4.656;2023-08-08T00:57:40;101492.22;;;14.33;100.00
69306;BME280;56427;51.580;4.656;2023-08-08T01:00:07;101484.81;;;14.29;100.00
69306;BME280;56427;51.580;4.656;2023-08-08T01:02:35;101488.66;;;14.25;100.00
69306;BME280;56427;51.580;4.656;2023-08-08T01:05:01;101487.53;;;14.27;100.00
69306;BME280;56427;51.580;4.656;2023-08-08T01:10:11;101475.31;;;14.08;100.00
69306;BME280;56427;51.580;4.656;2023-08-08T01:12:40;101481.91;;;14.12;100.00
69306;BME280;56427;51.580;4.656;2023-08-08T01:15:07;101490.00;;;14.09;100.00
69306;BME280;56427;51.580;4.656;2023-08-08T01:17:35;101464.72;;;14.00;100.00
69306;BME280;56427;51.580;4.656;2023-08-08T01:20:03;101476.53;;;14.04;100.00
69306;BME280;56427;51.580;4.656;2023-08-08T01:25:22;101469.41;;;14.06;100.00
69306;BME280;56427;51.580;4.656;2023-08-08T01:27:48;101467.75;;;14.05;100.00
69306;BME280;56427;51.580;4.656;2023-08-08T01:30:14;101467.88;;;14.04;100.00
69306;BME280;56427;51.580;4.656;2023-08-08T01:32:40;101470.75;;;14.01;100.00
69306;BME280;56427;51.580;4.656;2023-08-08T01:35:06;101474.19;;;14.01;100.00
69306;BME280;56427;51.580;4.656;2023-08-08T01:37:52;101473.22;;;14.02;100.00
69306;BME280;56427;51.580;4.656;2023-08-08T01:40:20;101481.91;;;14.12;100.00
69306;BME280;56427;51.580;4.656;2023-08-08T01:42:47;101480.94;;;14.13;100.00
69306;BME280;56427;51.580;4.656;2023-08-08T01:45:14;101481.22;;;14.20;100.00
69306;BME280;56427;51.580;4.656;2023-08-08T01:47:40;101469.25;;;14.17;100.00
69306;BME280;56427;51.580;4.656;2023-08-08T01:50:07;101477.94;;;14.28;100.00
69306;BME280;56427;51.580;4.656;2023-08-08T01:52:32;101481.78;;;14.24;100.00
69306;BME280;56427;51.580;4.656;2023-08-08T01:54:58;101471.47;;;14.22;100.00
69306;BME280;56427;51.580;4.656;2023-08-08T01:57:23;101475.06;;;14.21;100.00
69306;BME280;56427;51.580;4.656;2023-08-08T01:59:48;101471.34;;;14.24;100.00
69306;BME280;56427;51.580;4.656;2023-08-08T02:02:15;101482.06;;;14.30;100.00
69306;BME280;56427;51.580;4.656;2023-08-08T02:04:42;101473.00;;;14.25;100.00
69306;BME280;56427;51.580;4.656;2023-08-08T02:07:07;101473.66;;;14.17;100.00
69306;BME280;56427;51.580;4.656;2023-08-08T02:09:33;101470.66;;;14.22;100.00
69306;BME280;56427;51.580;4.656;2023-08-08T02:11:58;101461.44;;;14.17;100.00
69306;BME280;56427;51.580;4.656;2023-08-08T02:14:23;101461.72;;;14.05;100.00
69306;BME280;56427;51.580;4.656;2023-08-08T02:16:49;101485.47;;;14.11;100.00
69306;BME280;56427;51.580;4.656;2023-08-08T02:19:14;101473.13;;;14.13;100.00
69306;BME280;56427;51.580;4.656;2023-08-08T02:21:41;101457.03;;;14.08;100.00
69306;BME280;56427;51.580;4.656;2023-08-08T02:24:06;101471.59;;;14.11;100.00
69306;BME280;56427;51.580;4.656;2023-08-08T02:26:32;101452.63;;;13.99;100.00
69306;BME280;56427;51.580;4.656;2023-08-08T02:28:57;101458.13;;;14.15;100.00
69306;BME280;56427;51.580;4.656;2023-08-08T02:31:22;101448.38;;;14.08;100.00
69306;BME280;56427;51.580;4.656;2023-08-08T02:33:49;101447.69;;;14.06;100.00
69306;BME280;56427;51.580;4.656;2023-08-08T02:36:15;101446.19;;;14.03;100.00
69306;BME280;56427;51.580;4.656;2023-08-08T02:38:40;101448.94;;;14.02;100.00
69306;BME280;56427;51.580;4.656;2023-08-08T02:41:06;101445.47;;;14.01;100.00
69306;BME280;56427;51.580;4.656;2023-08-08T02:43:31;101447.41;;;13.99;100.00
69306;BME280;56427;51.580;4.656;2023-08-08T02:45:57;101448.22;;;13.90;100.00
69306;BME280;56427;51.580;4.656;2023-08-08T02:48:22;101446.72;;;13.97;100.00
69306;BME280;56427;51.580;4.656;2023-08-08T02:50:47;101444.91;;;13.97;100.00
69306;BME280;56427;51.580;4.656;2023-08-08T02:53:13;101435.84;;;13.92;100.00
69306;BME280;56427;51.580;4.656;2023-08-08T02:55:38;101441.75;;;13.94;100.00
69306;BME280;56427;51.580;4.656;2023-08-08T02:58:04;101453.59;;;13.98;100.00
69306;BME280;56427;51.580;4.656;2023-08-08T03:00:29;101456.75;;;13.92;100.00
69306;BME280;56427;51.580;4.656;2023-08-08T03:02:54;101450.13;;;13.88;100.00
69306;BME280;56427;51.580;4.656;2023-08-08T03:05:20;101451.22;;;13.85;100.00
69306;BME280;56427;51.580;4.656;2023-08-08T03:07:45;101449.28;;;13.77;100.00
69306;BME280;56427;51.580;4.656;2023-08-08T03:10:12;101432.94;;;13.75;100.00
69306;BME280;56427;51.580;4.656;2023-08-08T03:12:37;101436.63;;;13.73;100.00
69306;BME280;56427;51.580;4.656;2023-08-08T03:15:03;101437.75;;;13.70;100.00
69306;BME280;56427;51.580;4.656;2023-08-08T03:17:29;101437.75;;;13.70;100.00
69306;BME280;56427;51.580;4.656;2023-08-08T03:19:55;101442.81;;;13.72;100.00
69306;BME280;56427;51.580;4.656;2023-08-08T03:22:20;101435.81;;;13.72;100.00
69306;BME280;56427;51.580;4.656;2023-08-08T03:24:45;101437.88;;;13.69;100.00
69306;BME280;56427;51.580;4.656;2023-08-08T03:27:11;101441.81;;;13.63;100.00
69306;BME280;56427;51.580;4.656;2023-08-08T03:29:36;101445.25;;;13.54;100.00
69306;BME280;56427;51.580;4.656;2023-08-08T03:32:03;101435.47;;;13.46;100.00
69306;BME280;56427;51.580;4.656;2023-08-08T03:34:29;101436.66;;;13.42;100.00
69306;BME280;56427;51.580;4.656;2023-08-08T03:36:54;101445.72;;;13.38;100.00
69306;BME280;56427;51.580;4.656;2023-08-08T03:39:20;101434.22;;;13.40;100.00
69306;BME280;56427;51.580;4.656;2023-08-08T03:41:45;101438.16;;;13.35;100.00
69306;BME280;56427;51.580;4.656;2023-08-08T03:44:10;101448.13;;;13.30;100.00
69306;BME280;56427;51.580;4.656;2023-08-08T03:46:36;101441.97;;;13.31;100.00
69306;BME280;56427;51.580;4.656;2023-08-08T03:49:01;101438.91;;;13.25;100.00
69306;BME280;56427;51.580;4.656;2023-08-08T03:51:26;101442.78;;;13.31;100.00
69306;BME280;56427;51.580;4.656;2023-08-08T03:53:52;101438.47;;;13.20;100.00
69306;BME280;56427;51.580;4.656;2023-08-08T03:56:17;101437.91;;;13.17;100.00
69306;BME280;56427;51.580;4.656;2023-08-08T03:58:43;101440.50;;;13.17;100.00
69306;BME280;56427;51.580;4.656;2023-08-08T04:01:08;101435.69;;;13.12;100.00
69306;BME280;56427;51.580;4.656;2023-08-08T04:03:33;101428.97;;;13.10;100.00
69306;BME280;56427;51.580;4.656;2023-08-08T04:05:59;101428.28;;;13.07;100.00
69306;BME280;56427;51.580;4.656;2023-08-08T04:08:24;101429.78;;;13.10;100.00
69306;BME280;56427;51.580;4.656;2023-08-08T04:10:49;101428.00;;;13.11;100.00
69306;BME280;56427;51.580;4.656;2023-08-08T04:13:15;101432.25;;;13.12;100.00
69306;BME280;56427;51.580;4.656;2023-08-08T04:15:40;101413.16;;;13.01;100.00
69306;BME280;56427;51.580;4.656;2023-08-08T04:18:06;101430.88;;;13.07;100.00
69306;BME280;56427;51.580;4.656;2023-08-08T04:20:34;101432.34;;;13.00;100.00
69306;BME280;56427;51.580;4.656;2023-08-08T04:23:00;101428.66;;;13.03;100.00
69306;BME280;56427;51.580;4.656;2023-08-08T04:25:28;101421.66;;;13.03;100.00
69306;BME280;56427;51.580;4.656;2023-08-08T04:27:53;101424.38;;;13.02;100.00
69306;BME280;56427;51.580;4.656;2023-08-08T04:30:19;101421.91;;;13.00;100.00
69306;BME280;56427;51.580;4.656;2023-08-08T04:32:45;101426.56;;;12.97;100.00
69306;BME280;56427;51.580;4.656;2023-08-08T04:35:11;101418.25;;;13.03;100.00
69306;BME280;56427;51.580;4.656;2023-08-08T04:37:36;101421.66;;;13.03;100.00
69306;BME280;56427;51.580;4.656;2023-08-08T04:40:02;101419.63;;;13.07;100.00
69306;BME280;56427;51.580;4.656;2023-08-08T04:42:28;101423.75;;;13.10;100.00
69306;BME280;56427;51.580;4.656;2023-08-08T04:44:54;101434.22;;;13.19;100.00
69306;BME280;56427;51.580;4.656;2023-08-08T04:47:19;101432.56;;;13.18;100.00
69306;BME280;56427;51.580;4.656;2023-08-08T04:49:44;101437.25;;;13.24;100.00
69306;BME280;56427;51.580;4.656;2023-08-08T04:52:13;101422.06;;;13.30;100.00
69306;BME280;56427;51.580;4.656;2023-08-08T04:54:38;101418.41;;;13.32;100.00
69306;BME280;56427;51.580;4.656;2023-08-08T04:57:03;101412.56;;;13.29;100.00
69306;BME280;56427;51.580;4.656;2023-08-08T04:59:29;101417.88;;;13.17;100.00
69306;BME280;56427;51.580;4.656;2023-08-08T05:01:54;101443.28;;;13.25;100.00
69306;BME280;56427;51.580;4.656;2023-08-08T05:04:20;101446.66;;;13.37;100.00
69306;BME280;56427;51.580;4.656;2023-08-08T05:06:45;101439.56;;;13.39;100.00
69306;BME280;56427;51.580;4.656;2023-08-08T05:09:11;101438.28;;;13.33;100.00
69306;BME280;56427;51.580;4.656;2023-08-08T05:11:36;101438.47;;;13.41;100.00
69306;BME280;56427;51.580;4.656;2023-08-08T05:14:02;101437.78;;;13.39;100.00
69306;BME280;56427;51.580;4.656;2023-08-08T05:16:27;101434.66;;;13.46;100.00
69306;BME280;56427;51.580;4.656;2023-08-08T05:18:53;101430.34;;;13.35;100.00
69306;BME280;56427;51.580;4.656;2023-08-08T05:21:19;101439.19;;;13.53;100.00
69306;BME280;56427;51.580;4.656;2023-08-08T05:23:45;101440.03;;;13.54;100.00
69306;BME280;56427;51.580;4.656;2023-08-08T05:26:10;101433.03;;;13.54;100.00
69306;BME280;56427;51.580;4.656;2023-08-08T05:28:35;101435.88;;;13.51;100.00
69306;BME280;56427;51.580;4.656;2023-08-08T05:31:01;101435.22;;;13.59;100.00
69306;BME280;56427;51.580;4.656;2023-08-08T05:33:26;101431.81;;;13.68;100.00
69306;BME280;56427;51.580;4.656;2023-08-08T05:35:51;101439.53;;;13.79;100.00
69306;BME280;56427;51.580;4.656;2023-08-08T05:38:17;101442.84;;;13.82;100.00
69306;BME280;56427;51.580;4.656;2023-08-08T05:40:42;101439.56;;;13.89;100.00
69306;BME280;56427;51.580;4.656;2023-08-08T05:43:07;101444.78;;;13.89;100.00
69306;BME280;56427;51.580;4.656;2023-08-08T05:45:33;101445.78;;;13.98;100.00
69306;BME280;56427;51.580;4.656;2023-08-08T05:47:59;101434.19;;;13.91;100.00
69306;BME280;56427;51.580;4.656;2023-08-08T05:50:26;101445.91;;;14.16;100.00
69306;BME280;56427;51.580;4.656;2023-08-08T05:52:52;101441.66;;;14.34;100.00
69306;BME280;56427;51.580;4.656;2023-08-08T05:55:17;101450.72;;;14.50;100.00
69306;BME280;56427;51.580;4.656;2023-08-08T05:57:43;101432.72;;;14.47;100.00
69306;BME280;56427;51.580;4.656;2023-08-08T06:00:08;101442.75;;;14.42;100.00
69306;BME280;56427;51.580;4.656;2023-08-08T06:02:36;101440.28;;;14.50;100.00
69306;BME280;56427;51.580;4.656;2023-08-08T06:05:02;101434.81;;;14.63;100.00
69306;BME280;56427;51.580;4.656;2023-08-08T06:07:28;101432.16;;;14.82;100.00
69306;BME280;56427;51.580;4.656;2023-08-08T06:09:53;101442.19;;;14.97;100.00
69306;BME280;56427;51.580;4.656;2023-08-08T06:12:18;101419.63;;;14.86;100.00
69306;BME280;56427;51.580;4.656;2023-08-08T06:14:44;101438.69;;;15.06;100.00
69306;BME280;56427;51.580;4.656;2023-08-08T06:17:09;101445.41;;;15.18;100.00
69306;BME280;56427;51.580;4.656;2023-08-08T06:19:34;101446.69;;;15.04;100.00
69306;BME280;56427;51.580;4.656;2023-08-08T06:22:00;101434.44;;;15.42;100.00
69306;BME280;56427;51.580;4.656;2023-08-08T06:24:25;101449.31;;;15.70;100.00
69306;BME280;56427;51.580;4.656;2023-08-08T06:26:51;101457.00;;;15.81;100.00
69306;BME280;56427;51.580;4.656;2023-08-08T06:29:16;101458.50;;;15.74;100.00
69306;BME280;56427;51.580;4.656;2023-08-08T06:31:42;101451.13;;;15.69;100.00
69306;BME280;56427;51.580;4.656;2023-08-08T06:34:07;101446.03;;;15.68;100.00
69306;BME280;56427;51.580;4.656;2023-08-08T06:36:33;101444.41;;;15.57;100.00
69306;BME280;56427;51.580;4.656;2023-08-08T06:38:58;101461.25;;;15.82;100.00
69306;BME280;56427;51.580;4.656;2023-08-08T06:41:25;101444.69;;;16.09;100.00
69306;BME280;56427;51.580;4.656;2023-08-08T06:43:51;101440.19;;;16.19;100.00
69306;BME280;56427;51.580;4.656;2023-08-08T06:46:16;101450.88;;;16.26;100.00
69306;BME280;56427;51.580;4.656;2023-08-08T06:48:44;101437.56;;;16.19;100.00
69306;BME280;56427;51.580;4.656;2023-08-08T06:51:11;101448.19;;;16.54;100.00
69306;BME280;56427;51.580;4.656;2023-08-08T06:53:36;101446.88;;;16.32;100.00
69306;BME280;56427;51.580;4.656;2023-08-08T06:56:01;101442.06;;;16.27;100.00
69306;BME280;56427;51.580;4.656;2023-08-08T06:58:27;101440.03;;;16.39;100.00
69306;BME280;56427;51.580;4.656;2023-08-08T07:00:52;101452.03;;;16.42;100.00
69306;BME280;56427;51.580;4.656;2023-08-08T07:03:17;101445.28;;;16.83;100.00
69306;BME280;56427;51.580;4.656;2023-08-08T07:05:43;101437.47;;;17.18;100.00
69306;BME280;56427;51.580;4.656;2023-08-08T07:08:08;101435.06;;;17.67;100.00
69306;BME280;56427;51.580;4.656;2023-08-08T07:10:34;101428.25;;;17.91;100.00
69306;BME280;56427;51.580;4.656;2023-08-08T07:13:00;101428.41;;;17.89;100.00
69306;BME280;56427;51.580;4.656;2023-08-08T07:15:26;101431.06;;;18.38;100.00
69306;BME280;56427;51.580;4.656;2023-08-08T07:17:52;101422.69;;;18.43;100.00
69306;BME280;56427;51.580;4.656;2023-08-08T07:20:18;101421.56;;;18.29;100.00
69306;BME280;56427;51.580;4.656;2023-08-08T07:22:43;101434.22;;;18.26;100.00
69306;BME280;56427;51.580;4.656;2023-08-08T07:25:09;101435.47;;;17.97;100.00
69306;BME280;56427;51.580;4.656;2023-08-08T07:27:34;101426.34;;;17.58;100.00
69306;BME280;56427;51.580;4.656;2023-08-08T07:29:59;101434.16;;;17.42;100.00
69306;BME280;56427;51.580;4.656;2023-08-08T07:32:26;101437.63;;;17.51;100.00
69306;BME280;56427;51.580;4.656;2023-08-08T07:34:51;101429.88;;;17.41;100.00
69306;BME280;56427;51.580;4.656;2023-08-08T07:37:17;101426.56;;;17.31;100.00
69306;BME280;56427;51.580;4.656;2023-08-08T07:39:42;101431.44;;;17.17;100.00
69306;BME280;56427;51.580;4.656;2023-08-08T07:42:08;101429.38;;;17.03;100.00
69306;BME280;56427;51.580;4.656;2023-08-08T07:44:33;101445.31;;;17.09;100.00
69306;BME280;56427;51.580;4.656;2023-08-08T07:47:00;101441.41;;;17.56;100.00
69306;BME280;56427;51.580;4.656;2023-08-08T07:49:25;101430.72;;;18.09;100.00
69306;BME280;56427;51.580;4.656;2023-08-08T07:51:51;101432.41;;;18.26;100.00
69306;BME280;56427;51.580;4.656;2023-08-08T07:54:16;101432.69;;;17.90;100.00
69306;BME280;56427;51.580;4.656;2023-08-08T07:56:41;101426.22;;;17.76;100.00
69306;BME280;56427;51.580;4.656;2023-08-08T07:59:08;101433.44;;;17.32;100.00
69306;BME280;56427;51.580;4.656;2023-08-08T08:01:34;101437.72;;;17.33;100.00
69306;BME280;56427;51.580;4.656;2023-08-08T08:03:59;101447.66;;;17.21;100.00
69306;BME280;56427;51.580;4.656;2023-08-08T08:06:25;101445.34;;;17.18;100.00
69306;BME280;56427;51.580;4.656;2023-08-08T08:08:50;101444.41;;;16.92;100.00
69306;BME280;56427;51.580;4.656;2023-08-08T08:11:16;101421.38;;;16.60;100.00
69306;BME280;56427;51.580;4.656;2023-08-08T08:13:42;101442.59;;;16.93;100.00
69306;BME280;56427;51.580;4.656;2023-08-08T08:16:07;101439.50;;;16.98;100.00
69306;BME280;56427;51.580;4.656;2023-08-08T08:18:33;101435.34;;;16.69;100.00
69306;BME280;56427;51.580;4.656;2023-08-08T08:20:59;101434.03;;;16.65;100.00
69306;BME280;56427;51.580;4.656;2023-08-08T08:23:25;101433.75;;;16.50;100.00
69306;BME280;56427;51.580;4.656;2023-08-08T08:25:50;101446.78;;;16.42;100.00
69306;BME280;56427;51.580;4.656;2023-08-08T08:28:16;101434.28;;;16.17;100.00
69306;BME280;56427;51.580;4.656;2023-08-08T08:30:41;101439.09;;;16.22;100.00
69306;BME280;56427;51.580;4.656;2023-08-08T08:33:07;101451.34;;;16.22;100.00
69306;BME280;56427;51.580;4.656;2023-08-08T08:35:35;101443.47;;;16.40;100.00
69306;BME280;56427;51.580;4.656;2023-08-08T08:38:01;101454.66;;;16.42;100.00
69306;BME280;56427;51.580;4.656;2023-08-08T08:40:28;101447.75;;;16.41;100.00
69306;BME280;56427;51.580;4.656;2023-08-08T08:42:54;101446.16;;;16.48;100.00
69306;BME280;56427;51.580;4.656;2023-08-08T08:45:20;101435.81;;;16.64;100.00
69306;BME280;56427;51.580;4.656;2023-08-08T08:47:49;101443.16;;;16.61;100.00
69306;BME280;56427;51.580;4.656;2023-08-08T08:50:17;101423.94;;;16.78;100.00
69306;BME280;56427;51.580;4.656;2023-08-08T08:52:43;101438.72;;;17.05;100.00
69306;BME280;56427;51.580;4.656;2023-08-08T08:55:09;101429.09;;;17.14;100.00
69306;BME280;56427;51.580;4.656;2023-08-08T08:57:35;101418.50;;;17.66;100.00
69306;BME280;56427;51.580;4.656;2023-08-08T09:00:01;101430.72;;;18.09;100.00
69306;BME280;56427;51.580;4.656;2023-08-08T09:02:27;101425.16;;;18.12;100.00
69306;BME280;56427;51.580;4.656;2023-08-08T09:04:52;101426.97;;;18.28;100.00
69306;BME280;56427;51.580;4.656;2023-08-08T09:07:20;101435.31;;;17.90;100.00
69306;BME280;56427;51.580;4.656;2023-08-08T09:09:47;101447.16;;;18.44;100.00
69306;BME280;56427;51.580;4.656;2023-08-08T09:12:14;101429.44;;;18.46;100.00
69306;BME280;56427;51.580;4.656;2023-08-08T09:14:41;101434.34;;;18.73;100.00
69306;BME280;56427;51.580;4.656;2023-08-08T09:17:11;101427.75;;;18.77;100.00
69306;BME280;56427;51.580;4.656;2023-08-08T09:19:37;101435.66;;;18.45;100.00
69306;BME280;56427;51.580;4.656;2023-08-08T09:22:03;101439.28;;;18.44;100.00
69306;BME280;56427;51.580;4.656;2023-08-08T09:24:28;101438.13;;;18.46;100.00
69306;BME280;56427;51.580;4.656;2023-08-08T09:26:54;101433.84;;;18.04;100.00
69306;BME280;56427;51.580;4.656;2023-08-08T09:29:19;101435.50;;;18.13;100.00
69306;BME280;56427;51.580;4.656;2023-08-08T09:31:46;101430.38;;;17.95;100.00
69306;BME280;56427;51.580;4.656;2023-08-08T09:34:12;101433.59;;;17.81;100.00
69306;BME280;56427;51.580;4.656;2023-08-08T09:36:38;101441.81;;;17.86;100.00
69306;BME280;56427;51.580;4.656;2023-08-08T09:39:04;101430.81;;;17.82;100.00
69306;BME280;56427;51.580;4.656;2023-08-08T09:41:30;101433.97;;;17.35;100.00
69306;BME280;56427;51.580;4.656;2023-08-08T09:43:55;101440.72;;;17.46;100.00
69306;BME280;56427;51.580;4.656;2023-08-08T09:46:22;101435.97;;;17.50;100.00
69306;BME280;56427;51.580;4.656;2023-08-08T09:48:48;101432.97;;;17.36;100.00
69306;BME280;56427;51.580;4.656;2023-08-08T09:51:13;101441.03;;;17.43;100.00
69306;BME280;56427;51.580;4.656;2023-08-08T09:53:40;101437.97;;;18.48;100.00
69306;BME280;56427;51.580;4.656;2023-08-08T09:56:06;101439.47;;;18.58;100.00
69306;BME280;56427;51.580;4.656;2023-08-08T09:58:32;101439.09;;;18.29;100.00
69306;BME280;56427;51.580;4.656;2023-08-08T10:00:59;101447.50;;;18.16;100.00
69306;BME280;56427;51.580;4.656;2023-08-08T10:03:24;101443.34;;;17.97;100.00
69306;BME280;56427;51.580;4.656;2023-08-08T10:05:50;101444.25;;;17.71;100.00
69306;BME280;56427;51.580;4.656;2023-08-08T10:08:16;101438.91;;;17.46;100.00
69306;BME280;56427;51.580;4.656;2023-08-08T10:10:47;101425.69;;;17.22;100.00
69306;BME280;56427;51.580;4.656;2023-08-08T10:13:23;101441.41;;;17.22;100.00
69306;BME280;56427;51.580;4.656;2023-08-08T10:15:49;101443.38;;;17.54;100.00
69306;BME280;56427;51.580;4.656;2023-08-08T10:18:16;101449.34;;;17.81;100.00
69306;BME280;56427;51.580;4.656;2023-08-08T10:20:46;101438.75;;;17.99;100.00
69306;BME280;56427;51.580;4.656;2023-08-08T10:23:17;101430.16;;;17.80;100.00
69306;BME280;56427;51.580;4.656;2023-08-08T10:25:44;101437.28;;;17.96;100.00
69306;BME280;56427;51.580;4.656;2023-08-08T10:28:11;101427.88;;;17.85;100.00
69306;BME280;56427;51.580;4.656;2023-08-08T10:30:53;101436.13;;;18.98;100.00
69306;BME280;56427;51.580;4.656;2023-08-08T10:33:20;101438.19;;;19.58;100.00
69306;BME280;56427;51.580;4.656;2023-08-08T10:35:59;101437.47;;;19.73;100.00
69306;BME280;56427;51.580;4.656;2023-08-08T10:38:26;101442.16;;;19.23;100.00
69306;BME280;56427;51.580;4.656;2023-08-08T10:40:57;101425.94;;;18.86;100.00
69306;BME280;56427;51.580;4.656;2023-08-08T10:43:29;101439.28;;;18.35;100.00
69306;BME280;56427;51.580;4.656;2023-08-08T10:46:02;101447.34;;;18.26;100.00
69306;BME280;56427;51.580;4.656;2023-08-08T10:48:28;101422.19;;;18.15;100.00
69306;BME280;56427;51.580;4.656;2023-08-08T10:51:05;101377.69;;;17.97;100.00
69306;BME280;56427;51.580;4.656;2023-08-08T10:53:31;101430.41;;;18.03;100.00
69306;BME280;56427;51.580;4.656;2023-08-08T10:55:57;101428.75;;;18.68;100.00
69306;BME280;56427;51.580;4.656;2023-08-08T10:58:35;101423.66;;;18.91;100.00
69306;BME280;56427;51.580;4.656;2023-08-08T11:01:01;101432.16;;;19.49;100.00
69306;BME280;56427;51.580;4.656;2023-08-08T11:03:27;101430.59;;;19.63;100.00
69306;BME280;56427;51.580;4.656;2023-08-08T11:05:55;101421.59;;;19.18;98.46
69306;BME280;56427;51.580;4.656;2023-08-08T11:08:21;101432.19;;;19.81;98.80
69306;BME280;56427;51.580;4.656;2023-08-08T11:10:51;101428.75;;;19.72;93.32
69306;BME280;56427;51.580;4.656;2023-08-08T11:13:17;101430.59;;;19.95;94.10
69306;BME280;56427;51.580;4.656;2023-08-08T11:15:43;101424.03;;;20.37;92.81
69306;BME280;56427;51.580;4.656;2023-08-08T11:18:08;101422.44;;;20.28;93.08
69306;BME280;56427;51.580;4.656;2023-08-08T11:20:35;101421.66;;;20.65;91.65
69306;BME280;56427;51.580;4.656;2023-08-08T11:23:02;101417.53;;;20.48;89.40
69306;BME280;56427;51.580;4.656;2023-08-08T11:25:30;101409.22;;;21.04;90.04
69306;BME280;56427;51.580;4.656;2023-08-08T11:27:57;101416.03;;;20.83;90.94
69306;BME280;56427;51.580;4.656;2023-08-08T11:30:28;101425.50;;;20.92;90.02
69306;BME280;56427;51.580;4.656;2023-08-08T11:32:54;101410.16;;;20.58;89.29
69306;BME280;56427;51.580;4.656;2023-08-08T11:35:24;101401.59;;;20.79;89.33
69306;BME280;56427;51.580;4.656;2023-08-08T11:37:51;101371.31;;;20.52;88.17
69306;BME280;56427;51.580;4.656;2023-08-08T11:40:17;101423.22;;;20.89;88.51
69306;BME280;56427;51.580;4.656;2023-08-08T11:42:45;101411.56;;;20.69;82.45
69306;BME280;56427;51.580;4.656;2023-08-08T11:45:12;101410.03;;;20.74;82.16
69306;BME280;56427;51.580;4.656;2023-08-08T11:47:41;101406.09;;;20.32;86.85
69306;BME280;56427;51.580;4.656;2023-08-08T11:50:09;101428.41;;;20.45;86.25
69306;BME280;56427;51.580;4.656;2023-08-08T11:52:36;101436.00;;;20.63;86.37
69306;BME280;56427;51.580;4.656;2023-08-08T11:55:05;101413.41;;;20.98;87.06
69306;BME280;56427;51.580;4.656;2023-08-08T11:57:31;101415.56;;;21.09;84.88
69306;BME280;56427;51.580;4.656;2023-08-08T11:59:57;101417.31;;;21.02;83.68
69306;BME280;56427;51.580;4.656;2023-08-08T12:02:23;101417.78;;;20.38;90.35
69306;BME280;56427;51.580;4.656;2023-08-08T12:04:48;101423.53;;;19.95;84.15
69306;BME280;56427;51.580;4.656;2023-08-08T12:07:14;101408.50;;;20.42;81.34
69306;BME280;56427;51.580;4.656;2023-08-08T12:09:39;101409.94;;;20.30;80.46
69306;BME280;56427;51.580;4.656;2023-08-08T12:12:06;101413.66;;;20.73;82.77
69306;BME280;56427;51.580;4.656;2023-08-08T12:14:38;101403.09;;;20.73;82.72
69306;BME280;56427;51.580;4.656;2023-08-08T12:17:04;101409.69;;;20.92;84.52
69306;BME280;56427;51.580;4.656;2023-08-08T12:19:30;101398.69;;;21.40;86.77
69306;BME280;56427;51.580;4.656;2023-08-08T12:21:55;101400.78;;;21.60;85.11
69306;BME280;56427;51.580;4.656;2023-08-08T12:24:20;101399.63;;;21.47;80.00
69306;BME280;56427;51.580;4.656;2023-08-08T12:26:46;101402.59;;;21.44;78.13
69306;BME280;56427;51.580;4.656;2023-08-08T12:29:12;101415.66;;;20.33;80.25
69306;BME280;56427;51.580;4.656;2023-08-08T12:31:38;101403.03;;;20.96;85.49
69306;BME280;56427;51.580;4.656;2023-08-08T12:34:03;101405.81;;;20.27;86.40
69306;BME280;56427;51.580;4.656;2023-08-08T12:36:30;101406.59;;;19.58;90.62
69306;BME280;56427;51.580;4.656;2023-08-08T12:38:55;101413.78;;;20.57;84.07
69306;BME280;56427;51.580;4.656;2023-08-08T12:41:20;101409.41;;;21.17;80.06